createdAt,value
2019-03-27T00:02:05.975Z,90.41
2019-03-27T00:04:35.924Z,90.51
2019-03-27T00:07:05.780Z,91.06
2019-03-27T00:09:35.743Z,90.79
2019-03-27T00:12:05.682Z,91.31
2019-03-27T00:14:35.624Z,91.03
2019-03-27T00:17:05.567Z,90.77
2019-03-27T00:19:35.451Z,90.83
2019-03-27T00:22:05.649Z,91.43
2019-03-27T00:24:37.649Z,91.38
2019-03-27T00:27:07.504Z,92.37
2019-03-27T00:29:37.485Z,92.12
2019-03-27T00:32:07.494Z,91.78
2019-03-27T00:34:37.414Z,92.20
2019-03-27T00:37:07.342Z,92.23
2019-03-27T00:39:37.682Z,92.06
2019-03-27T00:42:07.626Z,92.67
2019-03-27T00:44:38.665Z,92.37
2019-03-27T00:47:10.129Z,92.55
2019-03-27T00:49:40.015Z,93.40
2019-03-27T00:52:10.020Z,93.12
2019-03-27T00:54:39.889Z,92.77
2019-03-27T00:57:09.772Z,93.33
2019-03-27T00:59:39.710Z,93.66
2019-03-27T01:02:09.727Z,93.68
2019-03-27T01:04:40.037Z,93.72
2019-03-27T01:07:10.110Z,93.92
2019-03-27T01:09:40.088Z,94.65
2019-03-27T01:12:10.150Z,95.22
2019-03-27T01:14:40.071Z,95.94
2019-03-27T01:17:10.341Z,95.87
2019-03-27T01:19:40.236Z,96.38
2019-03-27T01:22:10.141Z,96.13
2019-03-27T01:24:39.982Z,96.10
2019-03-27T01:27:09.944Z,96.30
2019-03-27T01:29:39.930Z,96.28
2019-03-27T01:32:10.674Z,96.50
2019-03-27T01:34:40.669Z,96.75
2019-03-27T01:37:11.132Z,97.64
2019-03-27T01:39:41.106Z,97.42
2019-03-27T01:42:11.123Z,97.98
2019-03-27T01:44:41.127Z,97.92
2019-03-27T01:47:11.046Z,98.29
2019-03-27T01:49:41.012Z,98.57
2019-03-27T01:52:10.953Z,98.14
2019-03-27T01:54:41.158Z,97.67
2019-03-27T01:57:11.149Z,98.06
2019-03-27T01:59:41.074Z,97.53
2019-03-27T02:02:11.031Z,97.59
2019-03-27T02:04:41.020Z,97.66
2019-03-27T02:07:10.933Z,98.98
2019-03-27T02:09:40.905Z,98.54
2019-03-27T02:12:11.231Z,98.42
2019-03-27T02:14:40.987Z,98.48
2019-03-27T02:17:11.004Z,98.18
2019-03-27T02:19:40.841Z,98.13
2019-03-27T02:22:12.951Z,98.06
2019-03-27T02:24:42.900Z,98.34
2019-03-27T02:27:12.811Z,98.33
2019-03-27T02:29:42.599Z,98.28
2019-03-27T02:32:12.583Z,97.87
2019-03-27T02:34:42.437Z,97.66
2019-03-27T02:37:12.356Z,98.35
2019-03-27T02:39:42.324Z,98.15
2019-03-27T02:42:12.300Z,98.11
2019-03-27T02:44:42.129Z,97.69
2019-03-27T02:47:12.203Z,97.55
2019-03-27T02:49:42.089Z,97.90
2019-03-27T02:52:12.009Z,98.12
2019-03-27T02:54:41.949Z,97.99
2019-03-27T02:57:11.886Z,98.32
2019-03-27T02:59:41.670Z,98.76
2019-03-27T03:02:11.568Z,99.08
2019-03-27T03:04:41.504Z,99.53
2019-03-27T03:07:11.471Z,99.65
2019-03-27T03:09:41.302Z,100.00
2019-03-27T03:12:11.095Z,100.00
2019-03-27T03:14:41.056Z,100.00
2019-03-27T03:17:11.007Z,100.00
2019-03-27T03:19:41.014Z,100.00
2019-03-27T03:22:10.908Z,100.00
2019-03-27T03:24:40.707Z,100.00
2019-03-27T03:27:10.903Z,100.00
2019-03-27T03:29:40.874Z,100.00
2019-03-27T03:32:10.798Z,100.00
2019-03-27T03:34:40.652Z,100.00
2019-03-27T03:37:10.607Z,100.00
2019-03-27T03:39:40.566Z,100.00
2019-03-27T03:42:10.372Z,100.00
2019-03-27T03:44:40.391Z,100.00
2019-03-27T03:47:10.340Z,100.00
2019-03-27T03:49:40.272Z,100.00
2019-03-27T03:52:10.683Z,100.00
2019-03-27T03:54:40.969Z,100.00
2019-03-27T03:57:10.981Z,100.00
2019-03-27T03:59:41.500Z,100.00
2019-03-27T04:02:11.308Z,100.00
2019-03-27T04:04:43.749Z,100.00
2019-03-27T04:07:14.011Z,100.00
2019-03-27T04:09:43.969Z,100.00
2019-03-27T04:12:13.946Z,100.00
2019-03-27T04:14:43.800Z,100.00
2019-03-27T04:17:17.519Z,100.00
2019-03-27T04:19:45.323Z,100.00
2019-03-27T04:22:15.282Z,100.00
2019-03-27T04:24:45.642Z,100.00
2019-03-27T04:27:15.511Z,100.00
2019-03-27T04:29:45.509Z,100.00
2019-03-27T04:32:15.365Z,100.00
2019-03-27T04:34:47.450Z,100.00
2019-03-27T04:37:17.031Z,100.00
2019-03-27T04:39:46.835Z,100.00
2019-03-27T04:42:17.227Z,100.00
2019-03-27T04:44:47.081Z,100.00
2019-03-27T04:47:31.171Z,100.00
2019-03-27T04:49:48.879Z,100.00
2019-03-27T04:52:18.711Z,100.00
2019-03-27T04:54:48.737Z,100.00
2019-03-27T04:57:18.694Z,100.00
2019-03-27T04:59:48.531Z,100.00
2019-03-27T05:02:18.354Z,100.00
2019-03-27T05:04:48.644Z,100.00
2019-03-27T05:07:18.577Z,100.00
2019-03-27T05:09:48.623Z,100.00
2019-03-27T05:12:18.580Z,100.00
2019-03-27T05:14:48.490Z,100.00
2019-03-27T05:17:18.508Z,100.00
2019-03-27T05:19:48.458Z,100.00
2019-03-27T05:22:18.444Z,100.00
2019-03-27T05:24:48.407Z,100.00
2019-03-27T05:27:18.322Z,100.00
2019-03-27T05:29:48.309Z,100.00
2019-03-27T05:32:18.273Z,99.93
2019-03-27T05:34:48.341Z,99.97
2019-03-27T05:37:18.211Z,99.80
2019-03-27T05:39:49.157Z,99.48
2019-03-27T05:42:19.127Z,99.52
2019-03-27T05:44:51.136Z,99.74
2019-03-27T05:47:21.044Z,99.74
2019-03-27T05:49:50.931Z,99.87
2019-03-27T05:52:20.861Z,99.91
2019-03-27T05:54:50.722Z,99.85
2019-03-27T05:57:20.996Z,99.80
2019-03-27T05:59:50.991Z,99.84
2019-03-27T06:02:21.888Z,99.92
2019-03-27T06:04:51.913Z,99.78
2019-03-27T06:07:21.811Z,99.84
2019-03-27T06:09:51.874Z,99.88
2019-03-27T06:12:21.766Z,99.69
2019-03-27T06:14:52.712Z,99.46
2019-03-27T06:17:23.097Z,99.25
2019-03-27T06:19:53.090Z,99.30
2019-03-27T06:22:22.940Z,99.05
2019-03-27T06:24:52.835Z,98.52
2019-03-27T06:27:22.842Z,98.70
2019-03-27T06:29:52.816Z,98.77
2019-03-27T06:32:22.763Z,97.48
2019-03-27T06:34:52.727Z,98.83
2019-03-27T06:37:22.591Z,98.79
2019-03-27T06:39:53.377Z,96.46
2019-03-27T06:42:24.433Z,97.09
2019-03-27T06:44:54.518Z,97.83
2019-03-27T06:47:24.478Z,98.30
2019-03-27T06:49:54.374Z,96.61
2019-03-27T06:52:24.268Z,97.26
2019-03-27T06:54:54.688Z,95.54
2019-03-27T06:57:24.590Z,95.40
2019-03-27T06:59:54.521Z,95.50
2019-03-27T07:02:28.499Z,95.40
2019-03-27T07:04:56.158Z,94.76
2019-03-27T07:07:26.277Z,93.95
2019-03-27T07:09:56.108Z,94.54
2019-03-27T07:12:27.757Z,95.32
2019-03-27T07:14:57.737Z,95.26
2019-03-27T07:17:27.768Z,95.27
2019-03-27T07:19:57.711Z,92.64
2019-03-27T07:22:27.659Z,93.25
2019-03-27T07:24:57.617Z,93.00
2019-03-27T07:27:27.445Z,94.17
2019-03-27T07:29:57.419Z,93.61
2019-03-27T07:32:27.411Z,91.83
2019-03-27T07:34:57.387Z,89.18
2019-03-27T07:37:27.393Z,89.37
2019-03-27T07:39:57.362Z,88.21
2019-03-27T07:42:28.874Z,91.25
2019-03-27T07:44:59.022Z,90.59
2019-03-27T07:47:28.896Z,89.40
2019-03-27T07:49:58.800Z,89.30
2019-03-27T07:52:28.760Z,89.33
2019-03-27T07:54:58.711Z,89.23
2019-03-27T07:57:28.642Z,88.89
2019-03-27T07:59:58.540Z,84.84
2019-03-27T08:02:29.865Z,87.76
2019-03-27T08:04:59.819Z,86.55
2019-03-27T08:07:29.852Z,85.18
2019-03-27T08:09:59.807Z,83.52
2019-03-27T08:12:29.788Z,83.75
2019-03-27T08:14:59.729Z,84.18
2019-03-27T08:17:29.778Z,81.66
2019-03-27T08:19:59.740Z,82.74
2019-03-27T08:22:29.692Z,83.04
2019-03-27T08:25:00.431Z,84.12
2019-03-27T08:27:30.383Z,83.36
2019-03-27T08:30:01.300Z,81.70
2019-03-27T08:32:31.238Z,82.25
2019-03-27T08:35:01.939Z,81.35
2019-03-27T08:37:32.241Z,81.87
2019-03-27T08:40:02.122Z,83.58
2019-03-27T08:42:32.089Z,85.04
2019-03-27T08:45:02.035Z,84.59
2019-03-27T08:47:31.951Z,84.94
2019-03-27T08:50:01.888Z,84.93
2019-03-27T08:52:31.829Z,85.53
2019-03-27T08:55:01.826Z,86.20
2019-03-27T08:57:31.836Z,86.05
2019-03-27T09:00:02.829Z,83.30
2019-03-27T09:02:32.924Z,83.11
2019-03-27T09:05:02.920Z,83.49
2019-03-27T09:07:33.698Z,82.40
2019-03-27T09:10:03.707Z,82.53
2019-03-27T09:12:33.967Z,81.53
2019-03-27T09:15:03.877Z,81.14
2019-03-27T09:17:33.845Z,79.98
2019-03-27T09:20:05.897Z,76.82
2019-03-27T09:22:36.997Z,76.62
2019-03-27T09:25:08.135Z,77.90
2019-03-27T09:27:38.186Z,77.00
2019-03-27T09:30:09.283Z,76.69
2019-03-27T09:32:39.562Z,77.78
2019-03-27T09:35:09.616Z,78.87
2019-03-27T09:37:39.668Z,75.33
2019-03-27T09:40:11.839Z,76.75
2019-03-27T09:42:41.833Z,77.16
2019-03-27T09:45:13.263Z,77.70
2019-03-27T09:47:43.309Z,78.49
2019-03-27T09:50:13.501Z,78.58
2019-03-27T09:52:44.567Z,76.96
2019-03-27T09:55:15.051Z,75.61
2019-03-27T09:57:48.530Z,73.51
2019-03-27T10:00:23.864Z,74.71
2019-03-27T10:02:57.140Z,71.12
2019-03-27T10:05:28.364Z,70.12
2019-03-27T10:07:58.450Z,70.54
2019-03-27T10:10:28.531Z,71.17
2019-03-27T10:12:58.970Z,67.16
2019-03-27T10:15:31.874Z,68.02
2019-03-27T10:18:01.708Z,67.46
2019-03-27T10:20:31.622Z,68.33
2019-03-27T10:23:01.471Z,65.32
2019-03-27T10:25:31.535Z,67.57
2019-03-27T10:28:01.450Z,65.38
2019-03-27T10:30:31.404Z,67.35
2019-03-27T10:33:07.122Z,65.30
2019-03-27T10:35:38.090Z,63.92
2019-03-27T10:38:08.071Z,65.76
2019-03-27T10:40:38.092Z,66.56
2019-03-27T10:43:10.113Z,66.97
2019-03-27T10:45:43.208Z,64.35
2019-03-27T10:48:13.976Z,65.68
2019-03-27T10:50:43.909Z,65.96
2019-03-27T10:53:13.850Z,64.78
2019-03-27T10:55:44.787Z,60.22
2019-03-27T10:58:17.895Z,61.33
2019-03-27T11:00:48.227Z,61.00
2019-03-27T11:03:25.408Z,54.19
2019-03-27T11:05:56.300Z,54.17
2019-03-27T11:08:26.197Z,55.24
2019-03-27T11:10:56.015Z,55.56
2019-03-27T11:13:26.039Z,54.04
2019-03-27T11:15:56.102Z,56.71
2019-03-27T11:18:26.199Z,57.01
2019-03-27T11:20:57.224Z,52.59
2019-03-27T11:23:27.150Z,51.88
2019-03-27T11:25:57.494Z,51.33
2019-03-27T11:28:27.729Z,54.73
2019-03-27T11:30:57.855Z,54.94
2019-03-27T11:33:29.053Z,54.31
2019-03-27T11:36:02.459Z,54.40
2019-03-27T11:41:54.690Z,56.74
2019-03-27T11:44:47.516Z,57.44
2019-03-27T11:47:53.057Z,58.17
2019-03-27T11:51:29.677Z,57.99
2019-03-27T11:54:24.024Z,56.41
2019-03-27T11:57:25.758Z,54.77
2019-03-27T12:00:06.336Z,53.72
2019-03-27T12:02:39.382Z,52.63
2019-03-27T12:05:12.843Z,54.96
2019-03-27T12:07:47.448Z,56.09
2019-03-27T12:10:21.645Z,52.17
2019-03-27T12:12:53.576Z,53.01
2019-03-27T12:15:43.362Z,49.04
2019-03-27T12:22:07.885Z,46.92
2019-03-27T12:24:47.263Z,48.37
2019-03-27T12:27:37.804Z,46.14
2019-03-27T12:30:21.353Z,47.59
2019-03-27T12:36:11.225Z,48.02
2019-03-27T12:43:42.177Z,45.96
2019-03-27T12:46:19.290Z,47.49
2019-03-27T13:19:10.157Z,47.39
2019-03-27T13:22:02.411Z,45.42
2019-03-27T13:25:50.873Z,43.71
2019-03-27T13:29:02.446Z,46.94
2019-03-27T13:47:18.027Z,47.12
2019-03-27T13:54:49.527Z,47.04
2019-03-27T15:33:33.815Z,37.33
2019-03-27T15:55:27.385Z,36.87
2019-03-27T16:01:38.258Z,42.15
2019-03-27T16:05:05.767Z,46.94
2019-03-27T16:10:29.026Z,48.95
2019-03-27T16:13:05.231Z,51.16
2019-03-27T16:16:29.104Z,51.59
2019-03-27T16:19:32.632Z,50.42
2019-03-27T16:22:07.736Z,52.09
2019-03-27T16:24:47.196Z,51.76
2019-03-27T16:27:19.852Z,51.34
2019-03-27T16:30:30.780Z,51.90
2019-03-27T16:33:53.392Z,51.26
2019-03-27T16:37:11.744Z,52.37
2019-03-27T16:43:58.673Z,51.98
2019-03-27T16:46:49.440Z,50.42
2019-03-27T16:49:55.931Z,51.94
2019-03-27T16:59:57.983Z,54.10
2019-03-27T17:02:42.332Z,53.48
2019-03-27T17:05:15.935Z,55.23
2019-03-27T17:08:02.278Z,54.89
2019-03-27T17:11:04.107Z,55.42
2019-03-27T17:14:06.841Z,55.51
2019-03-27T17:17:03.041Z,55.91
2019-03-27T17:19:54.592Z,56.37
2019-03-27T17:22:35.464Z,57.03
2019-03-27T17:25:39.867Z,57.87
2019-03-27T17:28:13.615Z,58.27
2019-03-27T17:30:47.334Z,58.55
2019-03-27T17:33:27.879Z,58.62
2019-03-27T17:35:58.548Z,59.36
2019-03-27T17:38:29.513Z,59.63
2019-03-27T17:41:13.025Z,60.18
2019-03-27T17:43:44.978Z,60.30
2019-03-27T17:46:37.059Z,60.42
2019-03-27T17:49:13.407Z,60.98
2019-03-27T17:51:50.833Z,61.16
2019-03-27T17:54:24.511Z,61.87
2019-03-27T17:56:56.074Z,62.30
2019-03-27T17:59:31.696Z,62.22
2019-03-27T18:02:04.634Z,62.20
2019-03-27T18:04:40.634Z,62.43
2019-03-27T18:07:13.554Z,62.34
2019-03-27T18:09:47.501Z,62.61
2019-03-27T18:12:24.894Z,62.94
2019-03-27T18:15:08.398Z,63.30
2019-03-27T18:17:43.675Z,63.34
2019-03-27T18:20:14.887Z,63.67
2019-03-27T18:23:03.447Z,64.26
2019-03-27T18:25:37.083Z,64.33
2019-03-27T18:28:09.517Z,64.59
2019-03-27T18:30:43.275Z,64.60
2019-03-27T18:33:20.097Z,64.58
2019-03-27T18:35:53.203Z,65.11
2019-03-27T18:38:28.973Z,65.59
2019-03-27T18:40:59.283Z,65.59
2019-03-27T18:43:30.371Z,65.65
2019-03-27T18:46:00.758Z,65.76
2019-03-27T18:48:32.639Z,66.39
2019-03-27T18:51:05.379Z,66.52
2019-03-27T18:53:38.233Z,67.46
2019-03-27T18:56:09.262Z,67.35
2019-03-27T18:58:40.294Z,67.37
2019-03-27T19:01:11.304Z,67.64
2019-03-27T19:03:43.651Z,67.67
2019-03-27T19:06:16.483Z,67.67
2019-03-27T19:08:55.254Z,68.23
2019-03-27T19:11:25.877Z,68.22
2019-03-27T19:13:56.880Z,68.20
2019-03-27T19:16:28.718Z,68.69
2019-03-27T19:18:59.198Z,68.61
2019-03-27T19:21:30.050Z,69.12
2019-03-27T19:24:13.301Z,69.13
2019-03-27T19:26:34.060Z,69.37
2019-03-27T19:29:04.571Z,69.65
2019-03-27T19:31:34.919Z,69.65
2019-03-27T19:34:06.634Z,69.82
2019-03-27T19:36:41.517Z,69.98
2019-03-27T19:39:11.972Z,69.93
2019-03-27T19:41:42.387Z,70.01
2019-03-27T19:44:13.010Z,70.16
2019-03-27T19:46:43.292Z,70.73
2019-03-27T19:49:13.767Z,70.75
2019-03-27T19:51:44.198Z,70.95
2019-03-27T19:54:26.477Z,71.04
2019-03-27T19:56:48.238Z,71.42
2019-03-27T19:59:20.435Z,72.13
2019-03-27T20:01:51.189Z,72.59
2019-03-27T20:04:24.347Z,73.00
2019-03-27T20:06:55.553Z,73.85
2019-03-27T20:09:26.969Z,73.39
2019-03-27T20:11:57.868Z,73.40
2019-03-27T20:14:28.286Z,73.51
2019-03-27T20:16:59.172Z,73.55
2019-03-27T20:19:30.140Z,74.56
2019-03-27T20:22:02.668Z,74.15
2019-03-27T20:24:40.838Z,74.28
2019-03-27T20:27:05.727Z,74.39
2019-03-27T20:29:36.099Z,74.22
2019-03-27T20:32:09.450Z,74.14
2019-03-27T20:34:40.455Z,74.15
2019-03-27T20:37:10.768Z,74.17
2019-03-27T20:39:42.642Z,74.21
2019-03-27T20:42:13.405Z,74.38
2019-03-27T20:44:43.931Z,74.18
2019-03-27T20:47:14.452Z,74.20
2019-03-27T20:49:45.370Z,74.20
2019-03-27T20:52:15.577Z,74.02
2019-03-27T20:54:55.088Z,73.69
2019-03-27T20:57:24.347Z,73.52
2019-03-27T20:59:55.431Z,73.44
2019-03-27T21:02:27.972Z,72.96
2019-03-27T21:05:01.061Z,73.29
2019-03-27T21:07:31.496Z,73.19
2019-03-27T21:10:03.499Z,73.23
2019-03-27T21:12:34.279Z,73.22
2019-03-27T21:15:07.924Z,73.22
2019-03-27T21:17:39.274Z,73.15
2019-03-27T21:20:10.615Z,73.21
2019-03-27T21:22:41.072Z,73.38
2019-03-27T21:25:11.591Z,73.46
2019-03-27T21:27:42.008Z,73.43
2019-03-27T21:30:12.813Z,73.54
2019-03-27T21:32:43.163Z,73.60
2019-03-27T21:35:14.148Z,73.76
2019-03-27T21:37:44.459Z,74.05
2019-03-27T21:40:14.902Z,74.13
2019-03-27T21:42:44.867Z,74.16
2019-03-27T21:45:15.699Z,74.20
2019-03-27T21:47:46.768Z,74.20
2019-03-27T21:50:16.967Z,74.20
2019-03-27T21:52:59.514Z,74.24
2019-03-27T21:55:22.819Z,74.09
2019-03-27T21:57:51.694Z,74.11
2019-03-27T22:00:38.842Z,74.15
2019-03-27T22:03:09.381Z,74.19
2019-03-27T22:05:39.441Z,74.29
2019-03-27T22:08:10.621Z,74.38
2019-03-27T22:10:40.564Z,74.48
2019-03-27T22:13:10.611Z,74.40
2019-03-27T22:15:41.444Z,74.32
2019-03-27T22:18:11.479Z,74.53
2019-03-27T22:20:41.870Z,74.53
2019-03-27T22:23:11.855Z,74.89
2019-03-27T22:25:42.020Z,74.67
2019-03-27T22:28:12.075Z,74.71
2019-03-27T22:30:42.794Z,74.84
2019-03-27T22:33:12.902Z,74.80
2019-03-27T22:35:43.811Z,74.68
2019-03-27T22:38:13.791Z,74.93
2019-03-27T22:40:43.868Z,75.17
2019-03-27T22:43:13.887Z,75.47
2019-03-27T22:45:44.168Z,75.50
2019-03-27T22:48:14.602Z,75.80
2019-03-27T22:50:44.568Z,76.12
2019-03-27T22:53:14.615Z,76.27
2019-03-27T22:55:49.995Z,76.12
2019-03-27T22:58:16.646Z,76.29
2019-03-27T23:00:49.699Z,76.55
2019-03-27T23:03:20.142Z,76.61
2019-03-27T23:05:50.096Z,76.55
2019-03-27T23:08:20.161Z,76.65
2019-03-27T23:10:50.449Z,76.83
2019-03-27T23:13:23.082Z,76.84
2019-03-27T23:15:53.317Z,76.93
2019-03-27T23:18:23.212Z,77.01
2019-03-27T23:20:53.271Z,77.34
2019-03-27T23:23:23.740Z,77.31
2019-03-27T23:26:02.988Z,77.28
2019-03-27T23:28:25.438Z,77.36
2019-03-27T23:30:58.328Z,77.52
2019-03-27T23:33:28.790Z,77.58
2019-03-27T23:35:58.992Z,77.68
2019-03-27T23:38:28.960Z,77.73
2019-03-27T23:40:58.980Z,77.71
2019-03-27T23:43:28.989Z,77.84
2019-03-27T23:45:58.900Z,77.90
2019-03-27T23:48:28.779Z,77.91
2019-03-27T23:50:58.634Z,78.05
2019-03-27T23:53:29.044Z,78.07
2019-03-27T23:55:59.031Z,78.16
2019-03-27T23:58:30.568Z,78.24
